Time;durP1;ratioP1;P1;durP2;ratioP2;P2;SDS_P1;SDS_P2;PMS_P1;PMS_P2;Temp;Humidity;BMP_temperature;BMP_pressure;BME280_temperature;BME280_humidity;BME280_pressure;Samples;Min_cycle;Max_cycle;Signal;HPM_P1;HPM_P2
2021/01/11 00:00:21;;;;;;;33.33;20.43;;;2.80;99.90;;;;;;5081303;28;20172;-82
2021/01/11 00:02:47;;;;;;;31.40;19.93;;;2.80;99.90;;;;;;5080922;28;20193;-83
2021/01/11 00:05:13;;;;;;;30.80;20.63;;;2.80;99.90;;;;;;5082368;28;20583;-83
2021/01/11 00:07:40;;;;;;;34.80;21.63;;;2.80;99.90;;;;;;5082160;28;20749;-82
2021/01/11 00:10:07;;;;;;;33.57;20.47;;;2.70;99.90;;;;;;5097354;28;20168;-82
2021/01/11 00:12:37;;;;;;;36.13;21.80;;;2.70;99.90;;;;;;5096467;28;20200;-82
2021/01/11 00:15:06;;;;;;;41.03;22.43;;;2.70;99.90;;;;;;5096969;28;20268;-83
2021/01/11 00:17:32;;;;;;;35.33;22.33;;;2.70;99.90;;;;;;5099594;28;20198;-82
2021/01/11 00:19:58;;;;;;;39.30;23.80;;;2.70;99.90;;;;;;5098547;28;20181;-82
2021/01/11 00:22:23;;;;;;;40.40;22.90;;;2.70;99.90;;;;;;5099066;28;20208;-83
2021/01/11 00:24:49;;;;;;;40.80;23.80;;;2.70;99.90;;;;;;5101313;28;20165;-83
2021/01/11 00:27:15;;;;;;;37.73;23.33;;;2.70;99.90;;;;;;5084797;28;20183;-83
2021/01/11 00:29:41;;;;;;;40.03;23.10;;;2.70;99.90;;;;;;5101482;28;20216;-83
2021/01/11 00:32:07;;;;;;;40.03;23.70;;;2.80;99.90;;;;;;5084754;28;20210;-83
2021/01/11 00:34:33;;;;;;;40.53;24.93;;;2.70;99.90;;;;;;5099502;28;20192;-82
2021/01/11 00:36:59;;;;;;;35.70;21.87;;;2.70;99.90;;;;;;5076855;28;20598;-83
2021/01/11 00:39:28;;;;;;;39.07;24.00;;;2.70;99.90;;;;;;5074670;28;20206;-82
2021/01/11 00:41:56;;;;;;;36.30;23.27;;;2.70;99.90;;;;;;5107459;28;20192;-82
2021/01/11 00:44:22;;;;;;;37.03;23.30;;;2.60;99.90;;;;;;5075895;28;20591;-82
2021/01/11 00:46:47;;;;;;;37.90;23.30;;;2.70;99.90;;;;;;5080049;28;20193;-82
2021/01/11 00:49:13;;;;;;;41.13;22.93;;;2.70;99.90;;;;;;5095663;28;20176;-82
2021/01/11 00:51:39;;;;;;;43.00;22.33;;;2.70;99.90;;;;;;5107314;28;20200;-82
2021/01/11 00:54:05;;;;;;;36.27;21.67;;;2.70;99.90;;;;;;5096464;28;20192;-83
2021/01/11 00:56:33;;;;;;;36.40;24.13;;;2.70;99.90;;;;;;5100071;28;20176;-83
2021/01/11 00:58:59;;;;;;;43.20;24.70;;;2.80;99.90;;;;;;5099550;28;20183;-82
2021/01/11 01:01:24;;;;;;;40.07;24.87;;;2.70;99.90;;;;;;5099575;28;20157;-82
2021/01/11 01:03:50;;;;;;;41.80;24.90;;;2.70;99.90;;;;;;5077645;28;20212;-82
2021/01/11 01:06:16;;;;;;;41.80;24.57;;;2.80;99.90;;;;;;5093561;28;20204;-82
2021/01/11 01:08:42;;;;;;;42.10;26.90;;;2.70;99.90;;;;;;5078830;28;20210;-82
2021/01/11 01:11:11;;;;;;;38.80;24.37;;;2.80;99.90;;;;;;5112859;28;20188;-82
2021/01/11 01:13:37;;;;;;;44.20;27.27;;;2.80;99.90;;;;;;5097094;28;20234;-82
2021/01/11 01:16:04;;;;;;;45.23;25.20;;;2.70;99.90;;;;;;5098860;28;20268;-82
2021/01/11 01:18:30;;;;;;;41.53;26.43;;;2.80;99.90;;;;;;5099981;28;20244;-83
2021/01/11 01:20:56;;;;;;;43.27;27.60;;;2.80;99.90;;;;;;5083935;28;20164;-82
2021/01/11 01:23:22;;;;;;;42.33;26.90;;;2.80;99.90;;;;;;5101512;28;20192;-82
2021/01/11 01:25:48;;;;;;;41.37;26.47;;;2.80;99.90;;;;;;5100598;28;20173;-82
2021/01/11 01:28:13;;;;;;;42.97;25.87;;;2.80;99.90;;;;;;5116484;28;20179;-82
2021/01/11 01:30:39;;;;;;;45.23;27.57;;;2.70;99.90;;;;;;5116200;28;20221;-82
2021/01/11 01:33:05;;;;;;;46.80;27.80;;;2.80;99.90;;;;;;5083154;28;20181;-83
2021/01/11 01:35:31;;;;;;;44.63;26.67;;;2.70;99.90;;;;;;5098892;28;20229;-83
2021/01/11 01:37:57;;;;;;;43.20;26.67;;;2.80;99.90;;;;;;5079006;28;20180;-82
2021/01/11 01:40:23;;;;;;;45.33;26.57;;;2.70;99.90;;;;;;5080152;28;20278;-82
2021/01/11 01:42:49;;;;;;;38.53;24.53;;;2.70;99.90;;;;;;5096047;28;20197;-81
2021/01/11 01:45:15;;;;;;;40.73;24.97;;;2.80;99.90;;;;;;5094518;28;20733;-82
2021/01/11 01:47:41;;;;;;;41.23;26.67;;;2.70;99.90;;;;;;5091420;28;20176;-81
2021/01/11 01:50:07;;;;;;;39.23;24.17;;;2.70;99.90;;;;;;5094772;28;20555;-81
2021/01/11 01:52:37;;;;;;;42.20;24.70;;;2.80;99.90;;;;;;5091925;28;20184;-82
2021/01/11 01:55:04;;;;;;;41.17;25.03;;;2.80;99.90;;;;;;5079338;28;20213;-83
2021/01/11 01:57:30;;;;;;;40.97;24.87;;;2.90;99.90;;;;;;5098847;28;20156;-82
2021/01/11 01:59:56;;;;;;;41.37;25.77;;;2.80;99.90;;;;;;5103519;28;20191;-81
2021/01/11 02:02:21;;;;;;;42.93;25.03;;;2.80;99.90;;;;;;5116643;28;20192;-82
2021/01/11 02:04:48;;;;;;;40.33;26.00;;;2.80;99.90;;;;;;5098389;28;20164;-82
2021/01/11 02:07:24;;;;;;;44.50;26.60;;;2.80;99.90;;;;;;5101325;28;20211;-82
2021/01/11 02:10:08;;;;;;;40.03;23.80;;;2.80;99.90;;;;;;5085034;28;20190;-83
2021/01/11 02:13:03;;;;;;;39.50;24.87;;;2.80;99.90;;;;;;5111504;28;20197;-82
2021/01/11 02:15:34;;;;;;;40.00;25.03;;;2.80;99.90;;;;;;5091458;28;20223;-81
2021/01/11 02:18:02;;;;;;;43.77;25.23;;;2.70;99.90;;;;;;5091210;28;20271;-81
2021/01/11 02:21:08;;;;;;;43.77;25.60;;;2.80;99.90;;;;;;5086717;28;20244;-82
2021/01/11 02:23:46;;;;;;;42.83;26.33;;;2.80;99.90;;;;;;5086314;28;20188;-81
2021/01/11 02:26:54;;;;;;;43.17;25.17;;;2.70;99.90;;;;;;5098105;28;20181;-82
2021/01/11 02:29:29;;;;;;;44.60;26.07;;;2.70;99.90;;;;;;5073954;28;20200;-82
2021/01/11 02:31:56;;;;;;;42.87;25.80;;;2.70;99.90;;;;;;5102067;28;20252;-82
2021/01/11 02:34:22;;;;;;;40.60;23.37;;;2.70;99.90;;;;;;5087727;28;20201;-82
2021/01/11 02:36:48;;;;;;;47.87;28.13;;;2.70;99.90;;;;;;5086835;28;20187;-83
2021/01/11 02:39:13;;;;;;;44.13;25.93;;;2.60;99.90;;;;;;5073268;28;20608;-82
2021/01/11 02:41:39;;;;;;;45.27;26.30;;;2.70;99.90;;;;;;5093271;28;20200;-82
2021/01/11 02:44:05;;;;;;;44.50;26.77;;;2.70;99.90;;;;;;5091414;28;20184;-81
2021/01/11 02:46:31;;;;;;;48.07;27.43;;;2.70;99.90;;;;;;5089894;28;20200;-82
2021/01/11 02:48:57;;;;;;;43.20;26.93;;;2.60;99.90;;;;;;5089698;28;20197;-82
2021/01/11 02:51:39;;;;;;;44.77;26.47;;;2.60;99.90;;;;;;5083649;28;20181;-82
2021/01/11 02:54:21;;;;;;;48.97;27.83;;;2.60;99.90;;;;;;5103849;28;20206;-82
2021/01/11 02:56:54;;;;;;;49.73;29.60;;;2.60;99.90;;;;;;5104656;28;20184;-82
2021/01/11 02:59:36;;;;;;;44.90;27.90;;;2.50;99.90;;;;;;5100664;28;20181;-81
2021/01/11 03:02:10;;;;;;;47.33;27.53;;;2.50;99.90;;;;;;5086615;28;20676;-82
2021/01/11 03:04:37;;;;;;;52.30;28.90;;;2.50;99.90;;;;;;5089755;28;20230;-82
2021/01/11 03:07:04;;;;;;;48.93;29.37;;;2.50;99.90;;;;;;5106134;28;20687;-82
2021/01/11 03:09:30;;;;;;;53.07;28.47;;;2.50;99.90;;;;;;5069662;28;20184;-82
2021/01/11 03:11:56;;;;;;;49.83;29.87;;;2.50;99.90;;;;;;5082748;28;20200;-82
2021/01/11 03:14:23;;;;;;;47.73;28.87;;;2.50;99.90;;;;;;5101551;28;20678;-81
2021/01/11 03:16:49;;;;;;;48.50;28.30;;;2.50;99.90;;;;;;5098819;28;20249;-82
2021/01/11 03:19:14;;;;;;;50.97;29.07;;;2.50;99.90;;;;;;5084874;28;20184;-82
2021/01/11 03:21:40;;;;;;;47.90;29.27;;;2.50;99.90;;;;;;5102381;28;20192;-82
2021/01/11 03:24:07;;;;;;;52.83;30.13;;;2.40;99.90;;;;;;5082762;28;20183;-82
2021/01/11 03:26:33;;;;;;;43.60;23.73;;;2.40;99.90;;;;;;5100970;28;20192;-81
2021/01/11 03:28:59;;;;;;;44.33;25.03;;;2.40;99.90;;;;;;5089188;28;20184;-81
2021/01/11 03:31:24;;;;;;;48.23;27.17;;;2.40;99.90;;;;;;5088438;28;20189;-82
2021/01/11 03:33:50;;;;;;;56.00;30.70;;;2.40;99.90;;;;;;5091277;28;20651;-82
2021/01/11 03:36:16;;;;;;;52.67;29.77;;;2.50;99.90;;;;;;5075571;28;20173;-82
2021/01/11 03:38:42;;;;;;;47.40;25.83;;;2.40;99.90;;;;;;5092113;28;20194;-82
2021/01/11 03:41:08;;;;;;;57.77;31.50;;;2.40;99.90;;;;;;5093668;28;20184;-82
2021/01/11 03:43:37;;;;;;;48.93;27.47;;;2.30;99.90;;;;;;5095774;28;20179;-81
2021/01/11 03:46:03;;;;;;;56.13;30.63;;;2.30;99.90;;;;;;5093054;28;20644;-82
2021/01/11 03:48:28;;;;;;;60.40;31.13;;;2.30;99.90;;;;;;5094321;28;20220;-81
2021/01/11 03:50:54;;;;;;;50.53;24.33;;;2.30;99.90;;;;;;5094416;28;20177;-82
2021/01/11 03:53:20;;;;;;;54.53;28.03;;;2.30;99.90;;;;;;5093776;28;20260;-82
2021/01/11 03:55:45;;;;;;;66.17;34.43;;;2.20;99.90;;;;;;5091917;28;20274;-81
2021/01/11 03:58:11;;;;;;;60.70;32.87;;;2.20;99.90;;;;;;5107274;28;20628;-82
2021/01/11 04:00:37;;;;;;;68.07;33.37;;;2.20;99.90;;;;;;5091655;28;20173;-82
2021/01/11 04:03:03;;;;;;;62.20;33.03;;;2.30;99.90;;;;;;5092798;28;20196;-82
2021/01/11 04:05:29;;;;;;;64.93;29.67;;;2.20;99.90;;;;;;5095240;28;20196;-82
2021/01/11 04:07:55;;;;;;;51.97;28.80;;;2.20;99.90;;;;;;5093741;28;20539;-82
2021/01/11 04:10:21;;;;;;;59.03;31.07;;;2.20;99.90;;;;;;5091427;28;20181;-81
2021/01/11 04:12:46;;;;;;;67.10;33.43;;;2.20;99.90;;;;;;5076630;28;20290;-82
2021/01/11 04:15:13;;;;;;;62.60;32.97;;;2.20;99.90;;;;;;5077607;28;20559;-81
2021/01/11 04:17:39;;;;;;;57.50;29.63;;;2.20;99.90;;;;;;5075371;28;20184;-82
2021/01/11 04:20:05;;;;;;;63.63;32.90;;;2.10;99.90;;;;;;5095050;28;20180;-82
2021/01/11 04:22:31;;;;;;;63.87;33.50;;;2.20;99.90;;;;;;5094945;28;20211;-82
2021/01/11 04:24:57;;;;;;;55.27;29.77;;;2.10;99.90;;;;;;5098739;28;20168;-82
2021/01/11 04:27:23;;;;;;;53.63;28.27;;;2.10;99.90;;;;;;5098130;28;20681;-82
2021/01/11 04:29:49;;;;;;;64.57;34.40;;;2.10;99.90;;;;;;5094914;28;20171;-82
2021/01/11 04:32:15;;;;;;;61.80;32.93;;;2.10;99.90;;;;;;5096445;28;20240;-81
2021/01/11 04:34:40;;;;;;;62.90;34.33;;;2.10;99.90;;;;;;5095785;28;20211;-82
2021/01/11 04:37:09;;;;;;;58.53;31.53;;;2.20;99.90;;;;;;5106411;28;20172;-81
2021/01/11 04:39:35;;;;;;;56.73;28.60;;;2.20;99.90;;;;;;5091345;28;20187;-82
2021/01/11 04:42:02;;;;;;;61.43;34.73;;;2.10;99.90;;;;;;5091503;28;20193;-82
2021/01/11 04:44:28;;;;;;;60.07;32.20;;;2.10;99.90;;;;;;5074146;28;20329;-82
2021/01/11 04:46:53;;;;;;;59.90;31.37;;;2.00;99.90;;;;;;5096479;28;20249;-83
2021/01/11 04:49:19;;;;;;;54.67;30.13;;;2.10;99.90;;;;;;5081164;28;20209;-81
2021/01/11 04:51:45;;;;;;;59.63;31.07;;;2.00;99.90;;;;;;5096852;28;20196;-81
2021/01/11 04:54:11;;;;;;;61.77;34.33;;;1.90;99.90;;;;;;5079588;28;20232;-84
2021/01/11 04:56:41;;;;;;;52.47;29.63;;;2.00;99.90;;;;;;5098105;28;20203;-84
2021/01/11 04:59:08;;;;;;;60.77;32.47;;;1.90;99.90;;;;;;5098012;28;20173;-83
2021/01/11 05:01:35;;;;;;;64.60;34.70;;;1.90;99.90;;;;;;5081193;28;20188;-83
2021/01/11 05:04:01;;;;;;;51.83;26.77;;;1.90;99.90;;;;;;5098148;28;20169;-83
2021/01/11 05:06:27;;;;;;;62.10;34.37;;;1.90;99.90;;;;;;5081130;28;20166;-83
2021/01/11 05:09:08;;;;;;;63.30;34.37;;;1.90;99.90;;;;;;5081123;28;20174;-83
2021/01/11 05:11:34;;;;;;;59.17;30.20;;;1.80;99.90;;;;;;5098524;28;20185;-83
2021/01/11 05:14:00;;;;;;;65.37;35.10;;;1.90;99.90;;;;;;5097968;28;20181;-83
2021/01/11 05:16:26;;;;;;;65.70;33.60;;;1.90;99.90;;;;;;5081207;28;20179;-83
2021/01/11 05:18:57;;;;;;;46.90;27.17;;;1.90;99.90;;;;;;5097846;28;20161;-84
2021/01/11 05:21:44;;;;;;;46.27;26.57;;;1.80;99.90;;;;;;5114148;28;20146;-84
2021/01/11 05:24:30;;;;;;;44.63;26.37;;;1.80;99.90;;;;;;5098303;28;20158;-83
2021/01/11 05:27:01;;;;;;;57.93;29.93;;;1.80;99.90;;;;;;5097635;28;20273;-83
2021/01/11 05:29:27;;;;;;;52.90;29.90;;;1.90;99.90;;;;;;5097534;28;20165;-83
2021/01/11 05:31:53;;;;;;;54.03;30.77;;;1.90;99.90;;;;;;5097671;28;20211;-84
2021/01/11 05:34:19;;;;;;;48.93;27.07;;;1.70;99.90;;;;;;5080749;28;20199;-84
2021/01/11 05:36:46;;;;;;;51.87;30.17;;;1.80;99.90;;;;;;5097578;28;20234;-84
2021/01/11 05:39:12;;;;;;;48.10;27.50;;;1.80;99.90;;;;;;5097826;28;20176;-83
2021/01/11 05:41:42;;;;;;;59.43;33.67;;;1.80;99.90;;;;;;5097343;28;20257;-84
2021/01/11 05:44:14;;;;;;;59.10;35.00;;;1.80;99.90;;;;;;5095453;28;20173;-83
2021/01/11 05:46:41;;;;;;;63.83;33.53;;;1.80;99.90;;;;;;5114308;28;20154;-84
2021/01/11 05:49:09;;;;;;;68.87;37.03;;;1.80;99.90;;;;;;5114317;28;20188;-84
2021/01/11 05:51:35;;;;;;;64.43;37.13;;;1.60;99.90;;;;;;5089399;28;20201;-83
2021/01/11 05:54:01;;;;;;;60.07;33.33;;;1.70;99.90;;;;;;5073038;28;20212;-82
2021/01/11 05:56:27;;;;;;;56.80;33.77;;;1.60;99.90;;;;;;5089619;28;20619;-82
2021/01/11 05:59:08;;;;;;;39.77;22.97;;;1.60;99.90;;;;;;5090377;28;20184;-82
2021/01/11 06:01:36;;;;;;;46.40;28.07;;;1.60;99.90;;;;;;5104971;28;20271;-82
2021/01/11 06:04:03;;;;;;;45.90;28.60;;;1.60;99.90;;;;;;5104227;28;20201;-81
2021/01/11 06:06:31;;;;;;;47.37;28.40;;;1.60;99.90;;;;;;5106497;28;20194;-84
2021/01/11 06:08:58;;;;;;;41.23;24.90;;;1.50;99.90;;;;;;5134645;27;20157;-86
2021/01/11 06:11:27;;;;;;;43.07;26.40;;;1.40;99.90;;;;;;5100900;28;20192;-86
2021/01/11 06:13:57;;;;;;;39.37;22.20;;;1.40;99.90;;;;;;5116279;28;20220;-82
2021/01/11 06:16:28;;;;;;;46.60;25.13;;;1.30;99.90;;;;;;5096726;28;20183;-84
2021/01/11 06:18:54;;;;;;;36.47;19.93;;;1.40;99.90;;;;;;5083854;28;20167;-83
2021/01/11 06:21:20;;;;;;;44.97;25.17;;;1.50;99.90;;;;;;5083713;28;20199;-85
2021/01/11 06:23:46;;;;;;;34.10;20.17;;;1.40;99.90;;;;;;5083984;28;20300;-85
2021/01/11 06:26:28;;;;;;;44.03;25.80;;;1.40;99.90;;;;;;5117044;28;20161;-84
2021/01/11 06:28:54;;;;;;;46.07;27.17;;;1.40;99.90;;;;;;5100667;28;20175;-83
2021/01/11 06:31:31;;;;;;;42.07;22.77;;;1.40;99.90;;;;;;5099914;28;20189;-82
2021/01/11 06:33:57;;;;;;;45.13;25.03;;;1.50;99.90;;;;;;5117042;28;20201;-83
2021/01/11 06:36:31;;;;;;;37.60;21.23;;;1.50;99.90;;;;;;5115871;28;20165;-83
2021/01/11 06:39:05;;;;;;;43.07;24.67;;;1.50;99.90;;;;;;5115788;28;20192;-83
2021/01/11 06:41:31;;;;;;;40.37;24.97;;;1.40;99.90;;;;;;5115106;28;20201;-83
2021/01/11 06:44:03;;;;;;;47.30;26.77;;;1.40;99.90;;;;;;5099756;28;20185;-83
2021/01/11 06:46:29;;;;;;;46.23;26.13;;;1.50;99.90;;;;;;5117147;28;20219;-82
2021/01/11 06:49:01;;;;;;;45.63;25.37;;;1.50;99.90;;;;;;5120217;28;20168;-83
2021/01/11 06:51:43;;;;;;;44.17;26.57;;;1.40;99.90;;;;;;5103068;28;20217;-83
2021/01/11 06:54:15;;;;;;;43.70;25.90;;;1.40;99.90;;;;;;5136938;27;20213;-82
2021/01/11 06:56:42;;;;;;;29.33;17.60;;;1.50;99.90;;;;;;5102887;28;20179;-81
2021/01/11 06:59:12;;;;;;;50.57;27.23;;;1.40;99.90;;;;;;5082362;28;20197;-83
2021/01/11 07:01:41;;;;;;;47.33;25.73;;;1.50;99.90;;;;;;5111354;28;20338;-82
2021/01/11 07:04:07;;;;;;;53.33;29.63;;;1.40;99.90;;;;;;5081646;28;20193;-80
2021/01/11 07:06:37;;;;;;;58.10;31.83;;;1.40;99.90;;;;;;5072736;28;20184;-81
2021/01/11 07:09:14;;;;;;;56.17;30.97;;;1.50;99.90;;;;;;5076979;28;20207;-83
2021/01/11 07:11:50;;;;;;;58.80;31.73;;;1.50;99.90;;;;;;5087516;28;20220;-81
2021/01/11 07:14:21;;;;;;;58.40;29.83;;;1.50;99.90;;;;;;5102427;28;20706;-81
2021/01/11 07:16:49;;;;;;;51.87;30.03;;;1.50;99.90;;;;;;5098483;28;20178;-81
2021/01/11 07:19:19;;;;;;;58.97;31.87;;;1.50;99.90;;;;;;5077571;28;20173;-81
2021/01/11 07:21:46;;;;;;;58.33;31.53;;;1.50;99.90;;;;;;5098527;28;20242;-81
2021/01/11 07:24:13;;;;;;;58.63;32.27;;;1.60;99.90;;;;;;5098642;28;20711;-83
2021/01/11 07:26:39;;;;;;;58.97;31.97;;;1.60;99.90;;;;;;5099897;28;20177;-82
2021/01/11 07:29:14;;;;;;;59.13;32.07;;;1.60;99.90;;;;;;5114100;27;20185;-82
2021/01/11 07:31:44;;;;;;;60.47;32.33;;;1.60;99.90;;;;;;5099198;28;20622;-81
2021/01/11 07:34:14;;;;;;;56.00;28.20;;;1.60;99.90;;;;;;5100152;28;20243;-82
2021/01/11 07:36:46;;;;;;;59.97;31.67;;;1.50;99.90;;;;;;5100529;28;20176;-82
2021/01/11 07:39:25;;;;;;;64.50;30.43;;;1.50;99.90;;;;;;5119046;28;20645;-82
2021/01/11 07:41:56;;;;;;;63.93;33.80;;;1.50;99.90;;;;;;5116413;28;20682;-81
2021/01/11 07:44:34;;;;;;;62.23;33.77;;;1.50;99.90;;;;;;5079460;28;20641;-82
2021/01/11 07:47:07;;;;;;;66.37;34.83;;;1.50;99.90;;;;;;5097349;28;20699;-82
2021/01/11 07:49:36;;;;;;;55.23;30.10;;;1.40;99.90;;;;;;5080134;28;20184;-83
2021/01/11 07:52:12;;;;;;;63.63;33.27;;;1.50;99.90;;;;;;5098994;28;20192;-84
2021/01/11 07:54:39;;;;;;;69.83;35.43;;;1.50;99.90;;;;;;5081864;28;20227;-83
2021/01/11 07:57:09;;;;;;;68.00;34.50;;;1.50;99.90;;;;;;5062683;28;20264;-82
2021/01/11 07:59:36;;;;;;;60.03;28.67;;;1.50;99.90;;;;;;5077057;28;20170;-84
2021/01/11 08:02:04;;;;;;;61.20;31.30;;;1.60;99.90;;;;;;5064846;28;20201;-82
2021/01/11 08:04:37;;;;;;;59.43;31.90;;;1.50;99.90;;;;;;5076745;28;20206;-83
2021/01/11 08:07:10;;;;;;;63.80;34.10;;;1.60;99.90;;;;;;5096435;28;20559;-82
2021/01/11 08:09:37;;;;;;;56.93;29.07;;;1.60;99.90;;;;;;5110861;28;20233;-81
2021/01/11 08:12:11;;;;;;;58.80;30.20;;;1.60;99.90;;;;;;5089018;28;20694;-81
2021/01/11 08:14:37;;;;;;;67.37;34.93;;;1.60;99.90;;;;;;5075524;28;20212;-81
2021/01/11 08:17:04;;;;;;;68.07;34.33;;;1.70;99.90;;;;;;5075556;28;20183;-81
2021/01/11 08:19:30;;;;;;;64.90;31.10;;;1.70;99.90;;;;;;5059079;28;20184;-81
2021/01/11 08:22:00;;;;;;;70.23;35.53;;;1.70;99.90;;;;;;5059127;28;20204;-81
2021/01/11 08:24:26;;;;;;;59.17;30.70;;;1.70;99.90;;;;;;5058909;28;20276;-81
2021/01/11 08:27:11;;;;;;;50.63;26.77;;;1.70;99.90;;;;;;5058794;28;20212;-81
2021/01/11 08:29:38;;;;;;;69.17;34.67;;;1.70;99.90;;;;;;5060304;28;20191;-82
2021/01/11 08:32:11;;;;;;;70.00;36.00;;;1.80;99.90;;;;;;5060083;28;20233;-81
2021/01/11 08:34:37;;;;;;;70.63;36.90;;;1.70;99.90;;;;;;5077243;28;20204;-82
2021/01/11 08:37:28;;;;;;;41.90;21.13;;;1.70;99.90;;;;;;5059660;28;20538;-81
2021/01/11 08:40:09;;;;;;;62.87;31.47;;;1.80;99.90;;;;;;5078083;28;20226;-81
2021/01/11 08:42:35;;;;;;;70.60;36.40;;;1.80;99.90;;;;;;5077720;28;20197;-81
2021/01/11 08:45:23;;;;;;;64.03;33.50;;;1.80;99.90;;;;;;5059838;28;20192;-81
2021/01/11 08:48:00;;;;;;;69.33;34.60;;;1.80;99.90;;;;;;5093635;28;20631;-81
2021/01/11 08:50:26;;;;;;;49.47;26.97;;;1.90;99.90;;;;;;5062776;28;20652;-81
2021/01/11 08:52:52;;;;;;;64.37;33.40;;;1.90;99.90;;;;;;5062778;28;20204;-81
2021/01/11 08:55:18;;;;;;;65.70;34.80;;;1.90;99.90;;;;;;5060624;28;20306;-81
2021/01/11 08:57:57;;;;;;;68.17;35.07;;;1.90;99.90;;;;;;5061490;28;20191;-82
2021/01/11 09:00:23;;;;;;;64.83;34.70;;;2.00;99.90;;;;;;5059662;28;20641;-81
2021/01/11 09:02:49;;;;;;;66.63;33.67;;;2.00;99.90;;;;;;5059705;28;20200;-80
2021/01/11 09:05:26;;;;;;;61.03;35.00;;;2.00;99.90;;;;;;5058663;28;20187;-81
2021/01/11 09:07:55;;;;;;;62.03;34.70;;;2.00;99.90;;;;;;5060687;28;20187;-81
2021/01/11 09:10:27;;;;;;;57.83;33.33;;;2.10;99.90;;;;;;5059204;28;20219;-81
2021/01/11 09:12:53;;;;;;;55.63;31.53;;;2.20;99.90;;;;;;5092756;28;20231;-81
2021/01/11 09:15:26;;;;;;;60.40;34.40;;;2.20;99.90;;;;;;5094984;28;20201;-82
2021/01/11 09:18:05;;;;;;;57.77;32.53;;;2.20;99.90;;;;;;5093172;28;20179;-82
2021/01/11 09:20:34;;;;;;;54.57;33.37;;;2.20;99.90;;;;;;5085056;28;20185;-81
2021/01/11 09:23:00;;;;;;;54.00;32.30;;;2.20;99.90;;;;;;5062916;28;20196;-81
2021/01/11 09:25:28;;;;;;;53.53;30.13;;;2.20;99.90;;;;;;5061411;28;20192;-81
2021/01/11 09:27:54;;;;;;;53.27;31.60;;;2.20;99.90;;;;;;5061674;28;20184;-81
2021/01/11 09:30:20;;;;;;;54.57;31.90;;;2.30;99.90;;;;;;5061737;28;20211;-81
2021/01/11 09:32:46;;;;;;;53.37;28.43;;;2.20;99.90;;;;;;5077249;28;20213;-83
2021/01/11 09:35:13;;;;;;;52.43;31.50;;;2.20;99.90;;;;;;5069597;28;20749;-81
2021/01/11 09:37:39;;;;;;;58.67;33.80;;;2.20;99.90;;;;;;5063881;28;20213;-82
2021/01/11 09:40:06;;;;;;;54.67;32.23;;;2.30;99.90;;;;;;5068428;28;20199;-83
2021/01/11 09:42:32;;;;;;;52.17;30.67;;;2.30;99.90;;;;;;5104642;28;20204;-83
2021/01/11 09:44:58;;;;;;;50.93;29.23;;;2.30;99.90;;;;;;5070173;28;20656;-81
2021/01/11 09:47:24;;;;;;;53.50;29.60;;;2.30;99.90;;;;;;5079689;28;20185;-81
2021/01/11 09:49:49;;;;;;;53.67;30.93;;;2.40;99.90;;;;;;5063973;28;20180;-81
2021/01/11 09:52:15;;;;;;;47.13;29.40;;;2.30;99.90;;;;;;5079684;28;20291;-81
2021/01/11 09:54:41;;;;;;;51.03;27.77;;;2.30;99.90;;;;;;5062512;28;20212;-82
2021/01/11 09:57:10;;;;;;;54.33;30.30;;;2.40;99.90;;;;;;5062697;28;20538;-81
2021/01/11 09:59:38;;;;;;;48.67;29.83;;;2.40;99.90;;;;;;5063743;28;20207;-82
2021/01/11 10:02:04;;;;;;;48.40;28.40;;;2.40;99.90;;;;;;5062105;28;20283;-81
2021/01/11 10:04:29;;;;;;;48.53;28.03;;;2.30;99.90;;;;;;5061480;28;20668;-81
2021/01/11 10:06:56;;;;;;;48.73;28.77;;;2.30;99.90;;;;;;5079622;28;20553;-82
2021/01/11 10:09:29;;;;;;;35.17;21.83;;;2.30;99.90;;;;;;5097201;28;20260;-81
2021/01/11 10:11:56;;;;;;;44.43;25.40;;;2.40;99.90;;;;;;5111416;28;20586;-81
2021/01/11 10:14:22;;;;;;;39.63;23.63;;;2.40;99.90;;;;;;5090916;28;20696;-82
2021/01/11 10:16:49;;;;;;;37.53;22.90;;;2.50;99.90;;;;;;5100186;28;20254;-81
2021/01/11 10:19:19;;;;;;;42.33;25.33;;;2.50;99.90;;;;;;5091543;28;20651;-81
2021/01/11 10:21:46;;;;;;;44.40;25.37;;;2.40;99.90;;;;;;5076088;28;20197;-82
2021/01/11 10:24:16;;;;;;;39.00;23.43;;;2.40;99.90;;;;;;5077681;28;20273;-81
2021/01/11 10:26:42;;;;;;;39.97;23.83;;;2.50;99.90;;;;;;5074846;28;20223;-81
2021/01/11 10:29:08;;;;;;;43.00;22.13;;;2.50;99.90;;;;;;5074402;28;20209;-81
2021/01/11 10:31:34;;;;;;;37.23;19.03;;;2.50;99.90;;;;;;5073757;28;20193;-81
2021/01/11 10:33:59;;;;;;;38.37;23.70;;;2.50;99.90;;;;;;5060712;28;20614;-81
2021/01/11 10:36:25;;;;;;;39.47;23.03;;;2.50;99.90;;;;;;5060819;28;20169;-81
2021/01/11 10:38:51;;;;;;;37.03;22.47;;;2.50;99.90;;;;;;5078599;28;20169;-80
2021/01/11 10:41:20;;;;;;;39.73;24.30;;;2.60;99.90;;;;;;5079981;28;20176;-81
2021/01/11 10:43:46;;;;;;;42.10;24.73;;;2.50;99.90;;;;;;5063609;28;20669;-81
2021/01/11 10:46:12;;;;;;;41.60;24.40;;;2.50;99.90;;;;;;5064586;28;20173;-81
2021/01/11 10:48:39;;;;;;;38.83;22.27;;;2.40;99.90;;;;;;5064406;28;20241;-81
2021/01/11 10:51:10;;;;;;;41.23;24.90;;;2.40;99.90;;;;;;5080775;28;20170;-80
2021/01/11 10:53:36;;;;;;;36.90;20.37;;;2.40;99.90;;;;;;5062856;28;20189;-81
2021/01/11 10:56:02;;;;;;;38.23;23.43;;;2.40;99.90;;;;;;5081018;28;20204;-81
2021/01/11 10:58:27;;;;;;;41.30;22.80;;;2.30;99.90;;;;;;5077160;28;20203;-81
2021/01/11 11:00:53;;;;;;;38.73;21.00;;;2.30;99.90;;;;;;5077136;28;20227;-81
2021/01/11 11:03:19;;;;;;;43.07;24.27;;;2.20;99.90;;;;;;5060467;28;20291;-81
2021/01/11 11:05:45;;;;;;;38.07;23.67;;;2.30;99.90;;;;;;5064914;28;20255;-81
2021/01/11 11:08:10;;;;;;;38.57;20.23;;;2.20;99.90;;;;;;5086087;28;20199;-81
2021/01/11 11:10:36;;;;;;;45.77;24.10;;;2.30;99.90;;;;;;5096949;28;20187;-81
2021/01/11 11:13:04;;;;;;;42.43;23.87;;;2.30;99.90;;;;;;5096838;28;20196;-81
2021/01/11 11:15:29;;;;;;;40.87;23.00;;;2.40;99.90;;;;;;5086152;28;20296;-81
2021/01/11 11:17:55;;;;;;;42.33;22.73;;;2.30;99.90;;;;;;5089823;28;20205;-81
2021/01/11 11:20:21;;;;;;;42.10;22.53;;;2.30;99.90;;;;;;5090131;28;20724;-81
2021/01/11 11:22:46;;;;;;;40.13;22.20;;;2.40;99.90;;;;;;5089988;28;20217;-80
2021/01/11 11:25:12;;;;;;;42.17;22.50;;;2.30;99.90;;;;;;5089868;28;20319;-81
2021/01/11 11:27:38;;;;;;;29.63;16.60;;;2.30;99.90;;;;;;5089601;28;20224;-81
2021/01/11 11:30:07;;;;;;;36.00;19.83;;;2.30;99.90;;;;;;5089594;28;20586;-80
2021/01/11 11:32:34;;;;;;;40.73;22.17;;;2.30;99.90;;;;;;5089625;28;20574;-81
2021/01/11 11:35:04;;;;;;;35.00;18.33;;;2.40;99.90;;;;;;5089923;28;20295;-81
2021/01/11 11:37:31;;;;;;;36.27;19.33;;;2.30;99.90;;;;;;5094221;28;20646;-80
2021/01/11 11:39:57;;;;;;;29.50;15.90;;;2.40;99.90;;;;;;5086006;28;20181;-81
2021/01/11 11:42:23;;;;;;;29.50;16.60;;;2.30;99.90;;;;;;5059420;28;20196;-81
2021/01/11 11:44:48;;;;;;;37.13;20.70;;;2.30;99.90;;;;;;5086785;28;20226;-81
2021/01/11 11:47:14;;;;;;;35.40;19.93;;;2.40;99.90;;;;;;5058724;28;20211;-81
2021/01/11 11:49:39;;;;;;;34.17;19.43;;;2.40;99.90;;;;;;5058841;28;20220;-80
2021/01/11 11:52:05;;;;;;;31.23;19.37;;;2.40;99.90;;;;;;5058850;28;20196;-81
2021/01/11 11:54:31;;;;;;;30.50;17.07;;;2.30;99.90;;;;;;5060486;28;20216;-81
2021/01/11 11:56:57;;;;;;;29.60;18.53;;;2.40;99.90;;;;;;5059939;28;20204;-81
2021/01/11 11:59:22;;;;;;;25.73;14.27;;;2.40;99.90;;;;;;5058892;28;20603;-81
2021/01/11 12:01:48;;;;;;;32.90;17.63;;;2.30;99.90;;;;;;5109519;28;20208;-82
2021/01/11 12:04:15;;;;;;;30.33;16.70;;;2.30;99.90;;;;;;5089203;28;20236;-81
2021/01/11 12:06:42;;;;;;;28.63;17.53;;;2.40;99.90;;;;;;5072613;28;20227;-82
2021/01/11 12:09:08;;;;;;;27.70;17.70;;;2.30;99.90;;;;;;5073211;28;20192;-81
2021/01/11 12:11:39;;;;;;;32.77;18.43;;;2.40;99.90;;;;;;5073695;28;20583;-82
2021/01/11 12:14:05;;;;;;;28.27;15.67;;;2.40;99.90;;;;;;5073786;28;20202;-82
2021/01/11 12:16:31;;;;;;;23.10;13.67;;;2.40;99.90;;;;;;5073773;28;20187;-82
2021/01/11 12:18:57;;;;;;;33.27;18.07;;;2.50;99.90;;;;;;5072031;28;20521;-81
2021/01/11 12:21:33;;;;;;;26.67;16.63;;;2.50;99.90;;;;;;5072594;28;20303;-82
2021/01/11 12:24:00;;;;;;;27.60;16.87;;;2.50;99.90;;;;;;5071961;28;20181;-82
2021/01/11 12:26:26;;;;;;;26.87;16.33;;;2.50;99.90;;;;;;5072106;28;20177;-82
2021/01/11 12:28:51;;;;;;;28.50;16.30;;;2.50;99.90;;;;;;5089056;28;20169;-81
2021/01/11 12:31:25;;;;;;;28.00;15.57;;;2.60;99.90;;;;;;5071983;28;20231;-81
2021/01/11 12:33:50;;;;;;;25.70;15.53;;;2.60;99.90;;;;;;5089838;28;20171;-81
2021/01/11 12:36:27;;;;;;;25.37;17.20;;;2.60;99.90;;;;;;5072433;28;20165;-81
2021/01/11 12:38:53;;;;;;;29.27;15.73;;;2.60;99.90;;;;;;5073869;28;20180;-81
2021/01/11 12:41:25;;;;;;;25.93;15.70;;;2.60;99.90;;;;;;5072964;28;20180;-81